Time;durP1;ratioP1;P1;durP2;ratioP2;P2;SDS_P1;SDS_P2;PMS_P1;PMS_P2;Temp;Humidity;BMP_temperature;BMP_pressure;BME280_temperature;BME280_humidity;BME280_pressure;Samples;Min_cycle;Max_cycle;Signal;HPM_P1;HPM_P2
2022/05/22 00:02:19;;;;;;;2.95;1.63;;;15.00;41.70;;;;;;5017289;28;20112;-80
2022/05/22 00:04:45;;;;;;;6.60;1.80;;;15.00;41.70;;;;;;5016475;28;20097;-79
2022/05/22 00:07:11;;;;;;;2.85;1.60;;;15.00;41.70;;;;;;5014270;28;20039;-79
2022/05/22 00:09:38;;;;;;;3.50;1.90;;;14.90;41.70;;;;;;5015359;28;20528;-79
2022/05/22 00:12:05;;;;;;;4.28;2.05;;;14.90;41.70;;;;;;5014247;28;20034;-79
2022/05/22 00:14:31;;;;;;;4.47;1.70;;;14.90;41.70;;;;;;5030147;28;20044;-78
2022/05/22 00:16:59;;;;;;;2.35;1.73;;;14.90;41.70;;;;;;5014717;28;20080;-79
2022/05/22 00:19:27;;;;;;;2.83;1.70;;;14.80;41.70;;;;;;5013409;28;21099;-79
2022/05/22 00:21:53;;;;;;;1.58;1.45;;;14.80;41.70;;;;;;5015063;28;20475;-78
2022/05/22 00:24:25;;;;;;;2.17;1.67;;;14.80;41.70;;;;;;5015019;28;20037;-79
2022/05/22 00:26:52;;;;;;;6.30;1.90;;;14.80;41.70;;;;;;5014557;28;20033;-79
2022/05/22 00:29:18;;;;;;;3.25;1.73;;;14.80;41.70;;;;;;5034505;28;20037;-79
2022/05/22 00:31:46;;;;;;;2.35;1.73;;;14.80;41.80;;;;;;5017975;28;20041;-79
2022/05/22 00:34:13;;;;;;;3.33;2.00;;;14.70;41.80;;;;;;5019495;28;20037;-77
2022/05/22 00:36:39;;;;;;;2.47;1.70;;;14.70;41.80;;;;;;5004559;28;20072;-78
2022/05/22 00:39:05;;;;;;;7.03;1.90;;;14.70;41.80;;;;;;5011950;28;20653;-78
2022/05/22 00:41:33;;;;;;;3.70;2.00;;;14.70;41.80;;;;;;5018015;28;20540;-77
2022/05/22 00:44:00;;;;;;;3.15;2.22;;;14.70;41.80;;;;;;5018482;28;20107;-79
2022/05/22 00:46:29;;;;;;;5.85;1.73;;;14.60;41.90;;;;;;5017787;28;20542;-77
2022/05/22 00:49:05;;;;;;;4.75;2.05;;;14.60;41.90;;;;;;5018986;28;20069;-79
2022/05/22 00:51:44;;;;;;;7.30;2.20;;;14.60;41.90;;;;;;5018400;28;20034;-78
2022/05/22 00:54:26;;;;;;;4.65;2.15;;;14.50;42.00;;;;;;5017695;28;20038;-80
2022/05/22 00:56:58;;;;;;;3.63;2.13;;;14.50;42.00;;;;;;5001349;28;20462;-80
2022/05/22 00:59:29;;;;;;;4.22;2.50;;;14.50;42.10;;;;;;5003911;28;20424;-79
2022/05/22 01:01:58;;;;;;;3.95;2.38;;;14.50;42.10;;;;;;4996128;28;20029;-78
2022/05/22 01:04:28;;;;;;;4.13;1.80;;;14.40;42.10;;;;;;5001041;28;20525;-79
2022/05/22 01:06:57;;;;;;;3.63;1.90;;;14.40;42.20;;;;;;5017622;28;20038;-80
2022/05/22 01:09:23;;;;;;;5.75;2.20;;;14.30;42.20;;;;;;5012596;28;20041;-80
2022/05/22 01:11:52;;;;;;;5.13;1.90;;;14.40;42.20;;;;;;5012665;28;20037;-80
2022/05/22 01:14:22;;;;;;;9.88;2.42;;;14.30;42.20;;;;;;5018957;28;20546;-80
2022/05/22 01:17:07;;;;;;;4.15;2.20;;;14.30;42.30;;;;;;4993540;28;20094;-79
2022/05/22 01:19:35;;;;;;;2.58;1.90;;;14.30;42.30;;;;;;5006098;28;20192;-79
2022/05/22 01:22:03;;;;;;;4.18;2.00;;;14.20;42.40;;;;;;5015611;28;20099;-79
2022/05/22 01:24:29;;;;;;;5.53;2.38;;;14.20;42.50;;;;;;5000587;28;20389;-79
2022/05/22 01:27:00;;;;;;;3.47;2.15;;;14.20;42.50;;;;;;5004487;28;20058;-78
2022/05/22 01:29:40;;;;;;;4.50;2.00;;;14.20;42.50;;;;;;5003326;28;20038;-79
2022/05/22 01:32:06;;;;;;;3.13;2.00;;;14.10;42.60;;;;;;5008016;28;20068;-79
2022/05/22 01:34:33;;;;;;;3.70;2.10;;;14.10;42.60;;;;;;5009700;28;20045;-79
2022/05/22 01:36:59;;;;;;;4.03;2.03;;;14.10;42.60;;;;;;5018248;28;20057;-79
2022/05/22 01:39:26;;;;;;;3.42;2.25;;;14.10;42.70;;;;;;5015542;28;20044;-77
2022/05/22 01:41:55;;;;;;;2.08;1.80;;;14.10;42.70;;;;;;5016221;28;20053;-80
2022/05/22 01:44:22;;;;;;;5.72;1.85;;;14.10;42.70;;;;;;5018363;28;20088;-78
2022/05/22 01:46:49;;;;;;;2.53;1.90;;;14.10;42.80;;;;;;5016679;28;20491;-78
2022/05/22 01:49:16;;;;;;;2.88;1.75;;;14.00;42.70;;;;;;4999461;28;20037;-79
2022/05/22 01:51:44;;;;;;;2.35;1.73;;;14.00;42.90;;;;;;5017498;28;20111;-79
2022/05/22 01:54:11;;;;;;;3.90;2.05;;;14.00;42.90;;;;;;5017910;28;20037;-79
2022/05/22 01:56:40;;;;;;;2.65;1.67;;;14.00;42.90;;;;;;5013672;28;20038;-79
2022/05/22 01:59:07;;;;;;;2.60;1.83;;;14.00;42.90;;;;;;5007691;28;20103;-79
2022/05/22 02:01:35;;;;;;;2.13;1.63;;;14.00;43.00;;;;;;5007240;28;20173;-79
2022/05/22 02:04:05;;;;;;;5.78;2.25;;;13.90;42.90;;;;;;5006721;28;20037;-80
2022/05/22 02:08:18;;;;;;;2.65;1.55;;;13.90;43.00;;;;;;4987288;28;20042;-79
2022/05/22 02:09:26;;;;;;;2.03;1.48;;;13.90;43.00;;;;;;5013709;28;20050;-80
2022/05/22 02:11:52;;;;;;;4.53;1.90;;;13.90;43.00;;;;;;5011067;28;20041;-79
2022/05/22 02:14:18;;;;;;;2.70;1.75;;;13.90;43.00;;;;;;5017464;28;20034;-79
2022/05/22 02:16:48;;;;;;;2.17;1.65;;;13.90;43.10;;;;;;5017205;28;20049;-80
2022/05/22 02:19:14;;;;;;;1.67;1.55;;;13.90;43.10;;;;;;5014328;28;20038;-79
2022/05/22 02:21:41;;;;;;;2.72;1.63;;;13.90;43.20;;;;;;5025056;28;20091;-79
2022/05/22 02:24:07;;;;;;;2.53;1.70;;;14.00;43.20;;;;;;4989481;28;20034;-79
2022/05/22 02:26:33;;;;;;;2.50;1.63;;;14.20;43.20;;;;;;4989924;28;20488;-79
2022/05/22 02:29:00;;;;;;;2.75;1.60;;;14.30;43.10;;;;;;4989929;28;20026;-80
2022/05/22 02:31:27;;;;;;;3.58;1.60;;;14.30;43.00;;;;;;4998078;28;20531;-80
2022/05/22 02:33:54;;;;;;;4.05;1.85;;;14.40;43.00;;;;;;4999356;28;20108;-79
2022/05/22 02:36:21;;;;;;;2.65;1.58;;;14.50;42.90;;;;;;5012619;28;20033;-79
2022/05/22 02:38:51;;;;;;;3.72;1.70;;;14.70;42.90;;;;;;5007791;28;20049;-79
2022/05/22 02:41:20;;;;;;;2.10;1.30;;;14.80;42.80;;;;;;4999534;28;20392;-78
2022/05/22 02:43:54;;;;;;;2.72;1.52;;;14.90;42.70;;;;;;5006364;28;20088;-79
2022/05/22 02:46:21;;;;;;;2.60;1.35;;;15.00;42.80;;;;;;5014696;28;20465;-78
2022/05/22 02:48:51;;;;;;;3.05;1.92;;;15.00;42.70;;;;;;4988513;28;20116;-78
2022/05/22 02:51:20;;;;;;;3.38;1.80;;;15.20;42.60;;;;;;5005025;28;20601;-78
2022/05/22 02:53:47;;;;;;;3.13;1.80;;;15.20;42.50;;;;;;5023761;28;20710;-79
2022/05/22 02:56:16;;;;;;;2.03;1.67;;;15.30;42.30;;;;;;5016212;28;20029;-77
2022/05/22 02:58:58;;;;;;;4.50;2.20;;;15.30;42.20;;;;;;5007099;28;20058;-78
2022/05/22 03:01:24;;;;;;;2.15;1.75;;;15.30;42.10;;;;;;5031178;28;20037;-78
2022/05/22 03:03:50;;;;;;;3.60;2.00;;;15.30;42.00;;;;;;5014563;28;20148;-78
2022/05/22 03:09:01;;;;;;;4.65;2.10;;;15.20;42.00;;;;;;5028030;28;20061;-78
2022/05/22 03:11:27;;;;;;;2.72;1.90;;;15.10;42.00;;;;;;4989917;28;20116;-78
2022/05/22 03:13:53;;;;;;;2.53;1.88;;;15.10;42.00;;;;;;5025857;28;20044;-79
2022/05/22 03:16:19;;;;;;;2.88;1.55;;;15.10;42.10;;;;;;5030639;28;20058;-78
2022/05/22 03:19:03;;;;;;;5.07;1.70;;;15.00;42.10;;;;;;5012692;28;20079;-79
2022/05/22 03:21:31;;;;;;;2.78;1.98;;;15.00;42.10;;;;;;5014114;28;20044;-78
2022/05/22 03:24:00;;;;;;;3.05;2.00;;;15.00;42.20;;;;;;5006902;28;20044;-78
2022/05/22 03:26:26;;;;;;;3.67;2.08;;;14.90;42.30;;;;;;5014256;28;20038;-78
2022/05/22 03:28:52;;;;;;;2.33;1.70;;;14.90;42.40;;;;;;4983645;28;20079;-78
2022/05/22 03:31:20;;;;;;;2.88;2.05;;;14.90;42.40;;;;;;5006173;28;20034;-78
2022/05/22 03:33:46;;;;;;;2.70;1.98;;;14.80;42.40;;;;;;5005197;28;20034;-78
2022/05/22 03:36:12;;;;;;;3.67;1.90;;;14.90;42.40;;;;;;5005312;28;20416;-78
2022/05/22 03:38:38;;;;;;;4.20;2.10;;;15.00;42.40;;;;;;5001801;28;20041;-79
2022/05/22 03:41:06;;;;;;;2.55;1.88;;;15.20;42.40;;;;;;5008627;28;20140;-79
2022/05/22 03:43:39;;;;;;;3.80;2.30;;;15.40;42.30;;;;;;5002639;28;20034;-80
2022/05/22 03:46:19;;;;;;;2.85;1.75;;;15.50;42.10;;;;;;4984730;28;20031;-80
2022/05/22 03:48:47;;;;;;;4.05;1.50;;;15.70;42.00;;;;;;4997767;28;20045;-80
2022/05/22 03:51:13;;;;;;;3.78;1.67;;;15.90;42.00;;;;;;4986002;28;20543;-80
2022/05/22 03:53:39;;;;;;;4.47;2.33;;;16.00;41.90;;;;;;5004321;28;20509;-79
2022/05/22 03:56:16;;;;;;;1.85;1.65;;;16.20;41.90;;;;;;5004679;28;20040;-80
2022/05/22 03:58:42;;;;;;;2.55;1.30;;;16.30;41.80;;;;;;5021219;28;20404;-80
2022/05/22 04:01:12;;;;;;;3.55;1.60;;;16.40;41.70;;;;;;5004374;28;20066;-79
2022/05/22 04:03:46;;;;;;;2.50;1.50;;;16.60;41.50;;;;;;5007158;28;20125;-78
2022/05/22 04:06:13;;;;;;;2.78;1.73;;;16.70;41.50;;;;;;5009576;28;20034;-79
2022/05/22 04:08:40;;;;;;;3.13;1.60;;;16.80;41.40;;;;;;5008783;28;20042;-78
2022/05/22 04:11:16;;;;;;;3.22;1.73;;;16.90;41.30;;;;;;5008732;28;20720;-80
2022/05/22 04:13:43;;;;;;;2.13;1.45;;;17.10;41.30;;;;;;5009847;28;20065;-79
2022/05/22 04:16:09;;;;;;;2.55;1.40;;;17.20;41.30;;;;;;4992418;28;20054;-79
2022/05/22 04:18:36;;;;;;;2.72;1.83;;;17.30;41.00;;;;;;5024441;28;20509;-79
2022/05/22 04:21:02;;;;;;;2.13;1.50;;;17.50;41.00;;;;;;5012891;28;20571;-80
2022/05/22 04:26:31;;;;;;;1.52;1.38;;;17.80;40.80;;;;;;5001495;28;20034;-80
2022/05/22 04:28:58;;;;;;;1.85;1.35;;;17.90;40.70;;;;;;5017856;28;20660;-80
2022/05/22 04:31:27;;;;;;;1.85;1.50;;;18.00;40.60;;;;;;5034116;28;20125;-79
2022/05/22 04:34:09;;;;;;;2.78;1.60;;;18.10;40.70;;;;;;5009497;28;20037;-79
2022/05/22 04:36:36;;;;;;;1.52;1.42;;;18.20;40.70;;;;;;5008286;28;20531;-81
2022/05/22 04:39:03;;;;;;;3.13;1.50;;;18.40;40.80;;;;;;5025085;28;20030;-79
2022/05/22 04:41:30;;;;;;;2.55;1.50;;;18.50;40.80;;;;;;4990941;28;20034;-80
2022/05/22 04:43:56;;;;;;;2.58;1.35;;;18.60;40.80;;;;;;4992283;28;20033;-79
2022/05/22 04:46:22;;;;;;;1.45;1.23;;;18.70;40.80;;;;;;5007570;28;20026;-79
2022/05/22 04:48:51;;;;;;;1.23;1.08;;;18.80;40.80;;;;;;5023254;28;20520;-77
2022/05/22 04:51:18;;;;;;;1.77;1.40;;;18.90;40.70;;;;;;5019530;28;20041;-78
2022/05/22 04:53:55;;;;;;;2.15;1.40;;;19.00;40.70;;;;;;5013021;28;20424;-78
2022/05/22 04:56:37;;;;;;;2.10;1.30;;;19.10;40.70;;;;;;4993307;28;20030;-79
2022/05/22 04:59:12;;;;;;;1.77;1.23;;;19.20;40.70;;;;;;5006814;28;20113;-79
2022/05/22 05:01:38;;;;;;;2.28;1.40;;;19.30;40.60;;;;;;5007845;28;20508;-80
2022/05/22 05:04:08;;;;;;;2.72;1.30;;;19.40;40.70;;;;;;5008268;28;20033;-79
2022/05/22 05:07:05;;;;;;;1.33;1.15;;;19.40;40.70;;;;;;5009907;28;20061;-80
2022/05/22 05:09:58;;;;;;;2.70;1.35;;;19.60;40.70;;;;;;5008864;28;20034;-80
2022/05/22 05:12:43;;;;;;;2.77;1.50;;;19.60;40.70;;;;;;5016271;28;20033;-81
2022/05/22 05:15:12;;;;;;;2.10;1.02;;;19.70;40.60;;;;;;5016476;28;20299;-80
2022/05/22 05:17:48;;;;;;;1.33;1.13;;;19.90;40.70;;;;;;5009151;28;20046;-80
2022/05/22 05:20:25;;;;;;;2.55;1.00;;;20.00;40.80;;;;;;5007819;28;20390;-80
2022/05/22 05:22:57;;;;;;;1.48;1.08;;;20.00;40.70;;;;;;5005082;28;20400;-81
2022/05/22 05:25:36;;;;;;;16.40;1.70;;;20.10;40.80;;;;;;5008010;28;20037;-82
2022/05/22 05:28:02;;;;;;;3.22;1.30;;;20.20;40.30;;;;;;5023473;28;20443;-83
2022/05/22 05:30:28;;;;;;;2.55;1.35;;;20.30;38.40;;;;;;5018193;28;20120;-81
2022/05/22 05:32:56;;;;;;;2.72;1.38;;;20.40;36.80;;;;;;5000499;28;20034;-87
2022/05/22 05:35:41;;;;;;;1.35;1.23;;;20.50;36.00;;;;;;5017911;28;20501;-89
2022/05/22 05:38:10;;;;;;;3.00;1.40;;;20.50;35.70;;;;;;5014508;28;20641;-83
2022/05/22 05:40:38;;;;;;;2.72;1.27;;;20.50;35.90;;;;;;5017442;28;20037;-85
2022/05/22 05:43:05;;;;;;;2.55;1.60;;;20.60;35.20;;;;;;5015612;28;20030;-84
2022/05/22 05:45:32;;;;;;;1.85;1.50;;;20.60;35.10;;;;;;4995534;28;20034;-82
2022/05/22 05:48:00;;;;;;;1.88;1.45;;;20.60;34.70;;;;;;5008525;28;20038;-86
2022/05/22 05:50:41;;;;;;;1.38;1.00;;;20.60;34.40;;;;;;5013556;28;20048;-89
2022/05/22 05:53:29;;;;;;;1.40;1.10;;;20.60;34.30;;;;;;5034130;28;20048;-89
2022/05/22 05:56:05;;;;;;;1.80;1.20;;;20.60;34.00;;;;;;5037753;28;20040;-85
2022/05/22 05:58:31;;;;;;;2.15;1.30;;;20.60;34.20;;;;;;5020381;28;20448;-85
2022/05/22 06:01:13;;;;;;;1.27;1.20;;;20.50;34.30;;;;;;5008519;28;20042;-85
2022/05/22 06:03:40;;;;;;;3.80;1.38;;;20.60;34.70;;;;;;5023052;28;20133;-86
2022/05/22 06:06:07;;;;;;;2.40;1.40;;;20.60;35.00;;;;;;5008383;28;20073;-81
2022/05/22 06:08:37;;;;;;;3.28;1.38;;;20.60;34.20;;;;;;5009504;28;20055;-88
2022/05/22 06:11:25;;;;;;;3.22;1.30;;;20.60;34.30;;;;;;5017412;28;20046;-83
2022/05/22 06:13:52;;;;;;;3.38;1.40;;;20.60;34.30;;;;;;5021404;28;20056;-87
2022/05/22 06:16:18;;;;;;;2.13;1.33;;;20.70;34.40;;;;;;5008791;28;20045;-87
2022/05/22 06:18:56;;;;;;;2.10;1.35;;;20.60;34.60;;;;;;5011083;28;20452;-88
2022/05/22 06:21:22;;;;;;;2.65;1.30;;;20.60;34.00;;;;;;4990992;28;20590;-88
2022/05/22 06:23:50;;;;;;;3.67;1.30;;;20.60;33.60;;;;;;5007331;28;20030;-87
2022/05/22 06:26:36;;;;;;;2.22;1.40;;;20.60;33.60;;;;;;5008242;28;20508;-86
2022/05/22 06:29:25;;;;;;;2.78;1.20;;;20.50;33.70;;;;;;5009120;28;20061;-86
2022/05/22 06:32:13;;;;;;;3.65;1.27;;;20.50;33.90;;;;;;5009575;28;20100;-85
2022/05/22 06:34:52;;;;;;;3.50;1.25;;;20.50;33.90;;;;;;5024916;28;20029;-81
2022/05/22 06:37:48;;;;;;;9.55;1.85;;;20.50;33.30;;;;;;5037891;28;20044;-76
2022/05/22 06:40:20;;;;;;;3.67;1.20;;;20.40;33.10;;;;;;5039300;28;20109;-82
2022/05/22 06:43:01;;;;;;;2.55;1.30;;;20.40;32.60;;;;;;5022365;28;20030;-89
2022/05/22 06:45:50;;;;;;;2.58;1.40;;;20.30;32.60;;;;;;5004247;28;20095;-85
2022/05/22 06:48:54;;;;;;;4.20;1.23;;;20.30;33.00;;;;;;5031833;28;20021;-81
2022/05/22 06:51:40;;;;;;;3.78;1.20;;;20.30;33.90;;;;;;4962397;28;20041;-79
2022/05/22 06:54:16;;;;;;;4.65;1.50;;;20.40;34.40;;;;;;4943153;28;20461;-80
2022/05/22 06:57:16;;;;;;;2.30;1.58;;;20.40;33.80;;;;;;4936304;28;20031;-77
2022/05/22 07:00:00;;;;;;;2.17;1.10;;;20.50;33.50;;;;;;4953819;28;20036;-81
2022/05/22 07:02:53;;;;;;;1.65;1.15;;;20.50;33.20;;;;;;4897357;29;20028;-80
2022/05/22 07:05:42;;;;;;;3.70;1.20;;;20.50;32.70;;;;;;4897002;29;20040;-91
2022/05/22 07:08:27;;;;;;;2.00;1.23;;;20.40;32.60;;;;;;4905226;29;20051;-87
2022/05/22 07:14:14;;;;;;;3.42;1.40;;;20.40;32.50;;;;;;4892014;29;20053;-88
2022/05/22 07:17:01;;;;;;;;;;;20.30;32.50;;;;;;4883697;29;20048;-90
2022/05/22 07:19:34;;;;;;;2.70;1.38;;;20.30;32.50;;;;;;4882931;29;19919;-86
2022/05/22 07:22:07;;;;;;;4.45;2.03;;;20.20;32.50;;;;;;4845840;29;20607;-80
2022/05/22 07:24:45;;;;;;;2.15;1.20;;;20.20;32.50;;;;;;4858359;29;20594;-84
2022/05/22 07:27:19;;;;;;;1.48;1.20;;;20.20;32.60;;;;;;4860769;29;20061;-81
2022/05/22 07:30:05;;;;;;;2.53;1.55;;;20.20;32.40;;;;;;4906920;29;20051;-82
2022/05/22 07:32:45;;;;;;;2.13;1.40;;;20.10;32.10;;;;;;4907331;29;20047;-80
2022/05/22 07:35:55;;;;;;;2.33;1.23;;;20.00;31.80;;;;;;4905733;29;20688;-84
2022/05/22 07:38:36;;;;;;;3.95;1.75;;;19.90;32.20;;;;;;4908111;28;20040;-83
2022/05/22 07:41:18;;;;;;;1.75;1.40;;;19.80;32.70;;;;;;4985470;28;20030;-80
2022/05/22 07:44:23;;;;;;;2.97;1.52;;;19.70;32.70;;;;;;4973734;28;20035;-79
2022/05/22 07:46:54;;;;;;;2.83;1.30;;;19.70;32.50;;;;;;4968251;28;20034;-79
2022/05/22 07:52:45;;;;;;;2.95;1.20;;;19.60;32.10;;;;;;4911121;29;20557;-81
2022/05/22 07:55:30;;;;;;;2.47;1.30;;;19.50;32.40;;;;;;4893051;29;20063;-83
2022/05/22 07:58:16;;;;;;;3.70;1.50;;;19.40;32.90;;;;;;4893900;29;20048;-83
2022/05/22 08:01:09;;;;;;;2.83;1.65;;;19.30;32.10;;;;;;4877901;29;20044;-80
2022/05/22 08:04:01;;;;;;;2.72;1.50;;;19.20;31.70;;;;;;4872822;29;20449;-84
2022/05/22 08:06:46;;;;;;;5.90;1.75;;;19.10;31.80;;;;;;4873169;29;20045;-84
2022/05/22 08:09:24;;;;;;;2.97;1.60;;;18.90;31.80;;;;;;4860572;29;20045;-83
2022/05/22 08:11:50;;;;;;;5.10;2.10;;;18.80;32.30;;;;;;4857346;29;20052;-87
2022/05/22 08:14:16;;;;;;;3.92;1.52;;;18.70;32.40;;;;;;4869892;29;20574;-85
2022/05/22 08:16:44;;;;;;;2.20;1.73;;;18.70;32.30;;;;;;4892470;29;20051;-83
2022/05/22 08:19:28;;;;;;;2.60;1.73;;;18.60;32.10;;;;;;4904468;29;20048;-82
2022/05/22 08:22:33;;;;;;;4.80;1.90;;;18.50;31.50;;;;;;4911728;29;20060;-84
2022/05/22 08:25:31;;;;;;;4.55;1.80;;;18.30;31.40;;;;;;4906555;29;20092;-85
2022/05/22 08:27:58;;;;;;;2.38;1.45;;;18.10;31.60;;;;;;4891228;29;20127;-84
2022/05/22 08:30:26;;;;;;;1.88;1.40;;;18.10;32.10;;;;;;4939242;28;20074;-83
2022/05/22 08:32:53;;;;;;;4.05;1.45;;;18.00;32.90;;;;;;4944845;28;20038;-84
2022/05/22 08:35:23;;;;;;;3.17;2.05;;;18.00;32.70;;;;;;4963088;28;20043;-85
2022/05/22 08:37:49;;;;;;;2.30;1.83;;;18.00;32.00;;;;;;4979573;28;20064;-84
2022/05/22 08:40:18;;;;;;;3.42;1.60;;;17.90;31.30;;;;;;4965002;28;20046;-85
2022/05/22 08:43:07;;;;;;;4.22;1.77;;;17.80;31.60;;;;;;4997407;28;20124;-85
2022/05/22 08:45:46;;;;;;;4.50;1.83;;;17.70;32.30;;;;;;5011386;28;20033;-86
2022/05/22 08:48:21;;;;;;;2.92;1.83;;;17.60;32.30;;;;;;5017401;28;20045;-85
2022/05/22 08:50:49;;;;;;;3.10;1.80;;;17.60;32.10;;;;;;4995406;28;20112;-82
2022/05/22 08:53:41;;;;;;;2.15;1.90;;;17.60;32.30;;;;;;5026927;28;20034;-85
2022/05/22 08:59:23;;;;;;;3.42;1.83;;;17.50;32.60;;;;;;5024335;28;20096;-84
2022/05/22 09:02:22;;;;;;;2.60;1.65;;;17.50;32.50;;;;;;4971582;28;20065;-86
2022/05/22 09:05:04;;;;;;;2.33;1.63;;;17.40;32.50;;;;;;4991411;28;20116;-84
2022/05/22 09:07:58;;;;;;;3.13;2.03;;;17.30;32.20;;;;;;4991023;28;20041;-85
2022/05/22 09:10:44;;;;;;;2.97;2.00;;;17.30;32.10;;;;;;5008147;28;20038;-85
2022/05/22 09:13:16;;;;;;;4.38;1.95;;;17.20;32.30;;;;;;4985779;28;20034;-85
2022/05/22 09:16:02;;;;;;;3.17;1.83;;;17.20;32.60;;;;;;4985534;28;20038;-85
2022/05/22 09:18:47;;;;;;;3.55;1.70;;;17.20;32.90;;;;;;4968800;28;20042;-84
2022/05/22 09:21:18;;;;;;;2.28;1.70;;;17.20;32.40;;;;;;4986367;28;20049;-83
2022/05/22 09:24:03;;;;;;;3.08;1.60;;;17.20;32.70;;;;;;4994961;28;20041;-81
2022/05/22 09:27:01;;;;;;;7.22;2.20;;;17.10;32.20;;;;;;5010069;28;20041;-84
2022/05/22 09:29:46;;;;;;;3.22;1.55;;;17.10;32.30;;;;;;5009531;28;21492;-82
2022/05/22 09:32:24;;;;;;;5.15;1.90;;;17.00;32.10;;;;;;4982136;28;20046;-81
2022/05/22 09:35:02;;;;;;;3.80;2.05;;;17.00;32.30;;;;;;4987713;28;20113;-85
2022/05/22 09:37:40;;;;;;;8.60;1.90;;;16.90;32.50;;;;;;4984800;28;20043;-83
2022/05/22 09:40:18;;;;;;;2.47;2.00;;;16.90;32.60;;;;;;4983943;28;20037;-86
2022/05/22 09:43:06;;;;;;;2.00;1.50;;;16.80;32.40;;;;;;4984212;28;20587;-84
2022/05/22 09:45:51;;;;;;;4.78;1.65;;;16.80;31.90;;;;;;4984179;28;20049;-84
2022/05/22 09:48:29;;;;;;;3.30;1.70;;;16.80;31.60;;;;;;4969338;28;20039;-85
2022/05/22 09:51:07;;;;;;;8.30;2.15;;;16.70;31.70;;;;;;5009640;28;20045;-83
2022/05/22 09:53:39;;;;;;;3.83;1.90;;;16.80;31.90;;;;;;5023541;28;20034;-83
2022/05/22 09:56:23;;;;;;;4.60;1.58;;;16.70;31.60;;;;;;4992786;28;20037;-84
2022/05/22 09:58:59;;;;;;;2.33;1.60;;;16.70;31.70;;;;;;5014621;28;20064;-84
2022/05/22 10:01:32;;;;;;;3.28;2.00;;;16.70;31.60;;;;;;4998959;28;20037;-85
2022/05/22 10:04:01;;;;;;;3.95;1.85;;;16.70;31.50;;;;;;5025098;28;20034;-85
2022/05/22 10:06:54;;;;;;;3.10;1.35;;;16.70;31.70;;;;;;5027670;28;20038;-82
2022/05/22 10:09:36;;;;;;;5.63;2.08;;;16.70;32.10;;;;;;5015950;28;20095;-85
2022/05/22 10:12:34;;;;;;;4.63;2.00;;;16.80;32.30;;;;;;5015403;28;20033;-84
2022/05/22 10:15:14;;;;;;;6.53;1.90;;;16.80;32.20;;;;;;5017757;28;20026;-85
2022/05/22 10:18:14;;;;;;;4.53;1.60;;;16.80;32.20;;;;;;5016591;28;20050;-85
2022/05/22 10:21:12;;;;;;;4.03;1.80;;;16.80;31.90;;;;;;5029758;28;20571;-83
2022/05/22 10:24:06;;;;;;;4.13;1.98;;;16.90;31.40;;;;;;5007590;28;20596;-84
2022/05/22 10:26:59;;;;;;;6.28;1.95;;;16.70;31.20;;;;;;4987321;28;20042;-83
2022/05/22 10:29:52;;;;;;;3.65;1.75;;;16.70;30.90;;;;;;5002496;28;20508;-83
2022/05/22 10:32:28;;;;;;;4.55;1.80;;;16.60;30.70;;;;;;5002089;28;20400;-86
2022/05/22 10:35:06;;;;;;;2.60;1.60;;;16.60;30.90;;;;;;5003433;28;20034;-85
2022/05/22 10:37:38;;;;;;;3.55;2.00;;;16.60;30.90;;;;;;5003998;28;20046;-83
2022/05/22 10:40:07;;;;;;;5.40;2.00;;;16.50;30.30;;;;;;5000597;28;20038;-83
2022/05/22 10:42:46;;;;;;;2.03;1.60;;;16.50;30.20;;;;;;4993716;28;20045;-85
2022/05/22 10:45:35;;;;;;;5.07;1.70;;;16.40;30.30;;;;;;4995487;28;20033;-84
2022/05/22 10:48:13;;;;;;;3.45;1.73;;;16.30;30.70;;;;;;5004970;28;20082;-85
2022/05/22 10:51:03;;;;;;;2.47;1.95;;;16.40;31.10;;;;;;5003922;28;20581;-85
2022/05/22 10:53:45;;;;;;;3.42;1.80;;;16.40;31.40;;;;;;4996594;28;20069;-86
2022/05/22 10:56:16;;;;;;;4.22;1.63;;;16.50;31.60;;;;;;5003181;28;20564;-80
2022/05/22 10:59:02;;;;;;;4.70;1.80;;;16.50;31.40;;;;;;5003409;28;20111;-86
2022/05/22 11:01:31;;;;;;;3.70;1.80;;;16.50;31.50;;;;;;4984945;28;20042;-81
2022/05/22 11:04:16;;;;;;;3.47;1.70;;;16.60;32.10;;;;;;5007247;28;20037;-85
2022/05/22 11:06:57;;;;;;;3.07;1.97;;;16.60;32.30;;;;;;5021346;28;20045;-84
2022/05/22 11:09:26;;;;;;;3.90;1.63;;;16.70;32.10;;;;;;5015907;28;20412;-84
2022/05/22 11:12:09;;;;;;;4.20;2.03;;;16.70;31.90;;;;;;5031938;28;20040;-85
2022/05/22 11:14:35;;;;;;;2.80;2.03;;;16.70;31.30;;;;;;5017759;28;20519;-83
2022/05/22 11:17:27;;;;;;;4.85;2.60;;;16.60;31.40;;;;;;5007618;28;20049;-85
2022/05/22 11:19:57;;;;;;;2.75;2.03;;;16.60;31.80;;;;;;5003372;28;20496;-82
2022/05/22 11:22:58;;;;;;;2.13;1.90;;;16.50;32.10;;;;;;5030074;28;20034;-85
2022/05/22 11:25:49;;;;;;;3.28;2.20;;;16.60;32.60;;;;;;5007236;28;20512;-86
2022/05/22 11:28:51;;;;;;;5.47;2.75;;;16.50;32.70;;;;;;5018420;28;20041;-91
2022/05/22 11:31:42;;;;;;;5.00;2.35;;;16.50;32.70;;;;;;5005570;28;20191;-85
2022/05/22 11:34:20;;;;;;;6.03;2.40;;;16.50;33.10;;;;;;5012293;28;20038;-82
2022/05/22 11:37:09;;;;;;;5.88;2.22;;;16.60;33.60;;;;;;4992309;28;20046;-85
2022/05/22 11:39:56;;;;;;;3.95;2.30;;;16.60;34.20;;;;;;5005840;28;20056;-85
2022/05/22 11:42:34;;;;;;;6.47;2.55;;;16.60;34.50;;;;;;5002864;28;20056;-87
2022/05/22 11:45:23;;;;;;;3.80;2.60;;;16.60;33.80;;;;;;5006805;28;20516;-84
2022/05/22 11:47:58;;;;;;;2.30;1.92;;;16.60;33.90;;;;;;5014857;28;20044;-87
2022/05/22 11:50:38;;;;;;;3.72;2.00;;;16.60;33.70;;;;;;5022204;28;20041;-84
2022/05/22 11:53:26;;;;;;;5.47;2.22;;;16.60;33.50;;;;;;5047181;28;20033;-85
2022/05/22 11:56:32;;;;;;;3.03;1.67;;;16.60;33.60;;;;;;5014839;28;20053;-86
2022/05/22 11:59:37;;;;;;;2.55;1.90;;;16.60;34.00;;;;;;5018940;28;20048;-83
2022/05/22 12:02:40;;;;;;;5.03;2.90;;;16.60;34.40;;;;;;5014781;28;20034;-89
2022/05/22 12:05:24;;;;;;;5.25;2.08;;;16.60;33.70;;;;;;5020614;28;20157;-85
2022/05/22 12:08:11;;;;;;;3.00;1.98;;;16.50;33.60;;;;;;4986012;28;20104;-87
2022/05/22 12:10:50;;;;;;;4.53;2.00;;;16.60;33.90;;;;;;4988179;28;20046;-85
2022/05/22 12:13:30;;;;;;;3.35;1.90;;;16.60;34.70;;;;;;4965335;28;20042;-83
2022/05/22 12:16:08;;;;;;;4.68;2.15;;;16.60;35.00;;;;;;4989651;28;20042;-82
2022/05/22 12:18:54;;;;;;;4.47;2.10;;;16.60;34.40;;;;;;4975026;28;20370;-84
2022/05/22 12:21:23;;;;;;;5.32;2.20;;;16.70;33.90;;;;;;5003993;28;20084;-84
2022/05/22 12:24:05;;;;;;;2.75;1.98;;;16.70;34.40;;;;;;5000103;28;20600;-83
2022/05/22 12:26:33;;;;;;;6.95;2.00;;;16.70;34.20;;;;;;5005954;28;20046;-82
2022/05/22 12:29:01;;;;;;;2.88;1.90;;;16.70;33.70;;;;;;4988603;28;20042;-81
2022/05/22 12:31:42;;;;;;;2.70;1.90;;;16.70;33.70;;;;;;5006333;28;20040;-83
2022/05/22 12:34:12;;;;;;;3.63;1.70;;;16.60;33.40;;;;;;5000860;28;20030;-83
2022/05/22 12:36:43;;;;;;;2.75;1.70;;;16.60;33.70;;;;;;5005595;28;20464;-83
2022/05/22 12:39:12;;;;;;;5.05;2.15;;;16.60;33.90;;;;;;4987687;28;20034;-83
2022/05/22 12:41:51;;;;;;;3.35;1.73;;;16.60;33.60;;;;;;5018313;28;20038;-83
2022/05/22 12:44:18;;;;;;;5.57;1.90;;;16.60;32.90;;;;;;5009173;28;20125;-82
2022/05/22 12:46:45;;;;;;;2.88;1.98;;;16.50;33.20;;;;;;5024704;28;20112;-83
2022/05/22 12:49:31;;;;;;;1.90;1.50;;;16.50;33.20;;;;;;4991864;28;20042;-82
2022/05/22 12:52:07;;;;;;;2.88;2.22;;;16.50;33.20;;;;;;5008322;28;20030;-85
2022/05/22 12:54:35;;;;;;;3.97;1.88;;;16.50;33.30;;;;;;5008381;28;20488;-84
2022/05/22 12:57:10;;;;;;;2.20;1.73;;;16.50;33.50;;;;;;5012528;28;20100;-82
2022/05/22 12:59:37;;;;;;;3.22;1.98;;;16.50;33.50;;;;;;5018394;28;20188;-82
2022/05/22 13:02:04;;;;;;;2.63;1.52;;;16.50;34.00;;;;;;5017173;28;20030;-80
2022/05/22 13:04:36;;;;;;;4.53;2.00;;;16.50;34.50;;;;;;5016039;28;20534;-81
2022/05/22 13:07:13;;;;;;;2.42;1.85;;;16.50;34.40;;;;;;5017636;28;20038;-81
2022/05/22 13:09:51;;;;;;;3.88;1.80;;;16.50;34.20;;;;;;5017207;28;20044;-81
2022/05/22 13:12:17;;;;;;;4.43;1.83;;;16.50;34.20;;;;;;5008873;28;20084;-79
2022/05/22 13:14:47;;;;;;;2.53;1.60;;;16.50;34.20;;;;;;5007360;28;20053;-80
2022/05/22 13:17:29;;;;;;;2.20;1.35;;;16.50;34.40;;;;;;5008163;28;20034;-83
2022/05/22 13:20:02;;;;;;;4.35;1.70;;;16.50;34.20;;;;;;5008775;28;20471;-82
2022/05/22 13:22:40;;;;;;;4.68;1.58;;;16.50;34.10;;;;;;5011916;28;20042;-82
2022/05/22 13:25:25;;;;;;;3.78;1.70;;;16.40;34.00;;;;;;5010812;28;20038;-85
2022/05/22 13:27:51;;;;;;;4.97;1.90;;;16.40;33.80;;;;;;5015567;28;20132;-83
2022/05/22 13:30:23;;;;;;;4.18;1.60;;;16.40;34.00;;;;;;5034374;28;20519;-82
2022/05/22 13:32:55;;;;;;;2.83;1.65;;;16.50;34.00;;;;;;5016586;28;20042;-84
2022/05/22 13:35:31;;;;;;;3.47;1.83;;;16.50;33.60;;;;;;5015731;28;20068;-86
2022/05/22 13:37:57;;;;;;;4.10;1.80;;;16.50;33.20;;;;;;4992798;28;20120;-83
2022/05/22 13:40:45;;;;;;;3.25;1.67;;;16.40;33.10;;;;;;5007317;28;20026;-83
2022/05/22 13:43:48;;;;;;;5.05;1.90;;;16.40;33.40;;;;;;5007885;28;20044;-81
2022/05/22 13:46:32;;;;;;;3.58;1.80;;;16.40;33.40;;;;;;5006972;28;20034;-85
2022/05/22 13:49:16;;;;;;;3.00;1.20;;;16.40;33.60;;;;;;5007171;28;20041;-81